Metar z pełnej godziny Komunikat METAR ze strony awiacja.imgw.pl Metar G00 EPWR METAR EPWR 231300Z 24008KT 200V300 9999 FEW040CB 24/11 Q1011 =